createdAt,value
2018-06-20T00:01:22.804Z,99.90
2018-06-20T00:03:51.329Z,99.90
2018-06-20T00:06:19.791Z,99.90
2018-06-20T00:08:52.901Z,99.90
2018-06-20T00:11:23.516Z,99.90
2018-06-20T00:13:52.816Z,99.90
2018-06-20T00:16:21.361Z,99.90
2018-06-20T00:18:49.882Z,99.90
2018-06-20T00:21:18.417Z,99.90
2018-06-20T00:23:46.885Z,99.90
2018-06-20T00:26:15.361Z,99.90
2018-06-20T00:28:43.792Z,99.90
2018-06-20T00:31:12.302Z,99.90
2018-06-20T00:33:40.893Z,99.90
2018-06-20T00:36:09.344Z,99.90
2018-06-20T00:38:37.785Z,99.90
2018-06-20T00:41:06.353Z,99.90
2018-06-20T00:43:34.727Z,99.90
2018-06-20T00:46:03.385Z,99.90
2018-06-20T00:48:31.829Z,99.90
2018-06-20T00:51:00.320Z,99.90
2018-06-20T00:53:28.749Z,99.90
2018-06-20T00:56:08.597Z,99.90
2018-06-20T00:58:37.864Z,99.90
2018-06-20T01:01:06.432Z,99.90
2018-06-20T01:03:34.936Z,99.90
2018-06-20T01:06:03.378Z,99.90
2018-06-20T01:08:31.860Z,99.90
2018-06-20T01:11:00.285Z,99.90
2018-06-20T01:13:28.718Z,99.90
2018-06-20T01:15:57.180Z,99.90
2018-06-20T01:18:25.637Z,99.90
2018-06-20T01:20:54.097Z,99.90
2018-06-20T01:28:21.053Z,99.90
2018-06-20T01:30:50.857Z,99.90
2018-06-20T01:33:19.776Z,99.90
2018-06-20T01:35:48.160Z,99.90
2018-06-20T01:38:16.609Z,99.90
2018-06-20T01:40:45.025Z,99.90
2018-06-20T01:43:13.444Z,99.90
2018-06-20T01:45:42.048Z,99.90
2018-06-20T01:48:10.502Z,99.90
2018-06-20T01:50:38.948Z,99.90
2018-06-20T01:53:07.354Z,99.90
2018-06-20T01:55:35.849Z,99.90
2018-06-20T01:58:04.164Z,99.90
2018-06-20T02:00:32.661Z,99.90
2018-06-20T02:05:29.190Z,99.90
2018-06-20T02:07:57.568Z,99.90
2018-06-20T02:10:26.010Z,99.90
2018-06-20T02:12:54.532Z,99.90
2018-06-20T02:15:22.960Z,99.90
2018-06-20T02:17:51.449Z,99.90
2018-06-20T02:20:20.263Z,99.90
2018-06-20T02:22:48.734Z,99.90
2018-06-20T02:25:17.308Z,99.90
2018-06-20T02:27:45.685Z,99.90
2018-06-20T02:30:14.092Z,99.90
2018-06-20T02:32:42.532Z,99.90
2018-06-20T02:35:10.935Z,99.90
2018-06-20T02:37:39.546Z,99.90
2018-06-20T02:40:07.900Z,99.90
2018-06-20T02:42:36.362Z,99.90
2018-06-20T02:45:04.869Z,99.90
2018-06-20T02:47:38.668Z,99.90
2018-06-20T02:50:07.146Z,99.90
2018-06-20T02:52:35.624Z,99.90
2018-06-20T02:55:04.112Z,99.90
2018-06-20T02:57:32.848Z,99.90
2018-06-20T03:00:01.577Z,99.90
2018-06-20T03:02:29.977Z,99.90
2018-06-20T03:04:58.517Z,99.90
2018-06-20T03:07:26.967Z,99.90
2018-06-20T03:09:55.402Z,99.90
2018-06-20T03:12:23.827Z,99.90
2018-06-20T03:14:52.237Z,99.90
2018-06-20T03:17:20.691Z,99.90
2018-06-20T03:26:16.106Z,99.90
2018-06-20T03:28:44.555Z,99.90
2018-06-20T03:31:12.958Z,99.90
2018-06-20T03:33:41.369Z,99.90
2018-06-20T03:36:09.809Z,99.90
2018-06-20T03:38:38.253Z,99.90
2018-06-20T03:41:06.726Z,99.90
2018-06-20T03:43:35.154Z,99.90
2018-06-20T03:46:03.549Z,99.90
2018-06-20T03:48:31.996Z,99.90
2018-06-20T03:51:00.512Z,99.90
2018-06-20T03:53:28.924Z,99.90
2018-06-20T03:55:57.389Z,99.90
2018-06-20T03:58:25.889Z,99.90
2018-06-20T04:00:54.328Z,99.90
2018-06-20T04:03:22.777Z,99.90
2018-06-20T04:05:51.279Z,99.90
2018-06-20T04:08:19.810Z,99.90
2018-06-20T04:10:48.257Z,99.90
2018-06-20T04:13:16.733Z,99.90
2018-06-20T04:15:45.109Z,99.90
2018-06-20T04:18:13.600Z,99.90
2018-06-20T04:20:41.965Z,99.90
2018-06-20T04:23:10.448Z,99.90
2018-06-20T04:25:38.885Z,99.90
2018-06-20T04:28:07.361Z,99.90
2018-06-20T04:30:35.694Z,99.90
2018-06-20T04:33:04.100Z,99.90
2018-06-20T04:35:32.495Z,99.90
2018-06-20T04:38:00.853Z,99.90
2018-06-20T04:40:29.288Z,99.90
2018-06-20T04:42:57.716Z,99.90
2018-06-20T04:45:26.095Z,99.90
2018-06-20T04:47:54.542Z,99.90
2018-06-20T04:50:23.022Z,99.90
2018-06-20T04:52:51.392Z,99.90
2018-06-20T04:55:19.807Z,99.90
2018-06-20T04:57:48.261Z,99.90
2018-06-20T05:00:16.641Z,99.90
2018-06-20T05:02:45.122Z,99.90
2018-06-20T05:05:13.530Z,99.90
2018-06-20T05:07:41.958Z,99.90
2018-06-20T05:10:10.371Z,99.90
2018-06-20T05:12:38.872Z,99.90
2018-06-20T05:15:07.399Z,99.90
2018-06-20T05:17:35.835Z,99.90
2018-06-20T05:20:04.558Z,99.90
2018-06-20T05:22:33.331Z,99.90
2018-06-20T05:25:01.832Z,99.90
2018-06-20T05:27:30.236Z,99.90
2018-06-20T05:29:58.644Z,99.90
2018-06-20T05:32:26.985Z,99.90
2018-06-20T05:34:55.524Z,99.90
2018-06-20T05:37:24.147Z,99.90
2018-06-20T05:39:52.536Z,99.90
2018-06-20T05:42:20.977Z,99.90
2018-06-20T05:47:17.580Z,99.90
2018-06-20T05:49:46.081Z,99.90
2018-06-20T05:52:14.628Z,99.90
2018-06-20T05:54:43.424Z,99.90
2018-06-20T05:57:12.024Z,99.90
2018-06-20T05:59:40.575Z,99.90
2018-06-20T06:02:09.194Z,99.90
2018-06-20T06:04:37.707Z,99.90
2018-06-20T06:07:06.238Z,99.90
2018-06-20T06:09:34.988Z,99.90
2018-06-20T06:12:03.472Z,99.90
2018-06-20T06:14:31.930Z,99.90
2018-06-20T06:17:00.429Z,99.90
2018-06-20T06:19:28.911Z,99.90
2018-06-20T06:21:57.380Z,99.90
2018-06-20T06:24:25.897Z,99.90
2018-06-20T06:26:54.339Z,99.90
2018-06-20T06:29:22.854Z,99.90
2018-06-20T06:31:51.300Z,99.90
2018-06-20T06:34:19.761Z,99.90
2018-06-20T06:36:48.245Z,99.90
2018-06-20T06:39:16.729Z,99.90
2018-06-20T06:41:45.229Z,99.90
2018-06-20T06:44:13.600Z,99.90
2018-06-20T06:46:42.029Z,99.90
2018-06-20T06:49:10.587Z,99.90
2018-06-20T06:51:39.057Z,99.90
2018-06-20T06:54:07.521Z,99.90
2018-06-20T06:56:36.020Z,99.90
2018-06-20T06:59:04.589Z,99.90
2018-06-20T07:01:33.065Z,99.90
2018-06-20T07:04:01.536Z,99.90
2018-06-20T07:06:30.031Z,99.90
2018-06-20T07:08:58.456Z,99.90
2018-06-20T07:11:26.984Z,99.90
2018-06-20T07:13:55.413Z,99.90
2018-06-20T07:16:23.873Z,99.90
2018-06-20T07:18:52.312Z,99.90
2018-06-20T07:21:21.357Z,99.90
2018-06-20T07:26:17.772Z,99.90
2018-06-20T07:28:46.158Z,99.90
2018-06-20T07:31:14.643Z,99.90
2018-06-20T07:33:43.014Z,99.90
2018-06-20T07:36:11.392Z,99.90
2018-06-20T07:38:39.756Z,99.90
2018-06-20T07:41:08.149Z,99.90
2018-06-20T07:43:36.539Z,99.90
2018-06-20T07:46:04.981Z,99.90
2018-06-20T07:48:33.351Z,99.90
2018-06-20T07:51:01.671Z,99.90
2018-06-20T07:53:30.049Z,99.90
2018-06-20T07:55:58.418Z,99.90
2018-06-20T07:58:32.181Z,99.90
2018-06-20T08:01:06.037Z,99.90
2018-06-20T08:03:39.685Z,99.90
2018-06-20T08:06:13.580Z,99.90
2018-06-20T08:08:47.440Z,99.90
2018-06-20T08:11:21.108Z,99.90
2018-06-20T08:13:54.821Z,99.90
2018-06-20T08:16:28.516Z,99.90
2018-06-20T08:19:02.308Z,99.90
2018-06-20T08:21:31.108Z,99.90
2018-06-20T08:23:59.488Z,99.90
2018-06-20T08:26:27.949Z,99.90
2018-06-20T08:28:56.335Z,99.90
2018-06-20T08:31:24.724Z,99.90
2018-06-20T08:33:53.128Z,99.90
2018-06-20T08:36:21.512Z,99.90
2018-06-20T08:38:49.932Z,99.90
2018-06-20T08:41:18.341Z,99.90
2018-06-20T08:43:46.749Z,99.90
2018-06-20T08:46:15.176Z,99.90
2018-06-20T08:48:43.565Z,99.90
2018-06-20T08:51:11.939Z,99.90
2018-06-20T08:53:40.277Z,99.90
2018-06-20T08:56:08.699Z,99.90
2018-06-20T08:58:37.128Z,99.90
2018-06-20T09:01:05.537Z,99.90
2018-06-20T09:03:33.927Z,99.90
2018-06-20T09:06:07.570Z,99.90
2018-06-20T09:08:41.332Z,99.90
2018-06-20T09:12:18.760Z,99.90
2018-06-20T09:14:52.565Z,99.90
2018-06-20T09:17:26.390Z,99.90
2018-06-20T09:19:56.097Z,99.90
2018-06-20T09:22:24.529Z,99.90
2018-06-20T09:27:21.003Z,99.90
2018-06-20T09:29:49.408Z,99.90
2018-06-20T09:32:17.737Z,99.90
2018-06-20T09:34:46.461Z,99.90
2018-06-20T09:37:14.977Z,99.90
2018-06-20T09:39:43.407Z,99.90
2018-06-20T09:42:11.739Z,99.90
2018-06-20T09:44:40.167Z,99.90
2018-06-20T09:47:08.501Z,99.90
2018-06-20T09:49:36.924Z,99.90
2018-06-20T09:52:05.277Z,99.90
2018-06-20T09:54:33.685Z,99.90
2018-06-20T10:04:43.508Z,99.90
2018-06-20T10:07:14.691Z,99.90
2018-06-20T10:09:48.413Z,99.90
2018-06-20T10:12:22.084Z,99.90
2018-06-20T10:14:50.457Z,99.90
2018-06-20T10:17:18.842Z,99.90
2018-06-20T10:19:47.287Z,99.90
2018-06-20T10:22:15.721Z,99.90
2018-06-20T10:24:44.143Z,99.90
2018-06-20T10:27:12.651Z,99.90
2018-06-20T10:29:41.115Z,99.90
2018-06-20T10:32:09.476Z,99.90
2018-06-20T10:34:37.881Z,99.90
2018-06-20T10:37:06.327Z,99.90
2018-06-20T10:39:34.776Z,99.90
2018-06-20T10:42:03.173Z,99.90
2018-06-20T10:44:31.652Z,99.90
2018-06-20T10:47:05.431Z,99.90
2018-06-20T10:49:33.833Z,99.90
2018-06-20T10:52:02.249Z,99.90
2018-06-20T10:54:30.688Z,99.90
2018-06-20T10:57:04.511Z,99.90
2018-06-20T10:59:38.282Z,99.90
2018-06-20T11:02:11.873Z,99.90
2018-06-20T11:04:45.594Z,99.90
2018-06-20T11:07:19.268Z,99.40
2018-06-20T11:09:52.968Z,98.90
2018-06-20T11:12:26.759Z,98.10
2018-06-20T11:14:55.135Z,98.00
2018-06-20T11:17:23.492Z,98.80
2018-06-20T11:19:51.864Z,98.10
2018-06-20T11:22:20.413Z,97.90
2018-06-20T11:24:48.822Z,96.80
2018-06-20T11:27:17.256Z,97.20
2018-06-20T11:29:45.809Z,96.60
2018-06-20T11:32:14.273Z,95.90
2018-06-20T11:34:42.652Z,95.30
2018-06-20T11:37:11.058Z,95.20
2018-06-20T11:39:39.422Z,95.30
2018-06-20T11:42:07.817Z,95.80
2018-06-20T11:44:36.278Z,94.20
2018-06-20T11:47:10.202Z,93.90
2018-06-20T11:49:38.586Z,93.90
2018-06-20T11:52:12.432Z,93.60
2018-06-20T11:54:41.866Z,92.60
2018-06-20T11:57:10.358Z,92.00
2018-06-20T11:59:44.200Z,92.20
2018-06-20T12:02:18.367Z,91.50
2018-06-20T12:04:52.339Z,90.90
2018-06-20T12:09:28.373Z,90.70
2018-06-20T12:12:02.258Z,89.90
2018-06-20T12:14:36.258Z,90.20
2018-06-20T12:17:04.113Z,89.70
2018-06-20T12:19:38.069Z,90.20
2018-06-20T12:22:12.151Z,90.00
2018-06-20T12:27:19.874Z,85.10
2018-06-20T12:29:54.654Z,85.20
2018-06-20T12:32:28.633Z,88.40
2018-06-20T12:35:02.869Z,84.00
2018-06-20T12:37:36.915Z,82.90
2018-06-20T12:40:11.166Z,85.00
2018-06-20T12:42:44.857Z,82.10
2018-06-20T12:45:16.555Z,83.00
2018-06-20T12:47:48.064Z,81.40
2018-06-20T12:50:27.715Z,78.10
2018-06-20T12:52:56.831Z,73.70
2018-06-20T12:55:26.166Z,75.70
2018-06-20T12:57:55.373Z,75.10
2018-06-20T13:00:23.953Z,75.50
2018-06-20T13:02:52.428Z,77.80
2018-06-20T13:05:21.752Z,76.40
2018-06-20T13:07:50.186Z,75.80
2018-06-20T13:10:18.788Z,77.30
2018-06-20T13:12:47.245Z,76.20
2018-06-20T13:15:15.758Z,75.70
2018-06-20T13:17:44.382Z,74.40
2018-06-20T13:20:12.957Z,72.90
2018-06-20T13:22:41.453Z,75.90
2018-06-20T13:25:10.159Z,75.80
2018-06-20T13:27:44.026Z,73.70
2018-06-20T13:30:12.988Z,72.40
2018-06-20T13:32:46.785Z,70.90
2018-06-20T13:35:20.575Z,69.20
2018-06-20T13:37:54.375Z,69.00
2018-06-20T13:40:28.272Z,71.30
2018-06-20T13:43:02.183Z,73.40
2018-06-20T13:45:36.094Z,70.20
2018-06-20T13:48:10.067Z,71.20
2018-06-20T13:50:38.504Z,70.40
2018-06-20T13:53:07.000Z,68.90
2018-06-20T13:55:35.494Z,68.50
2018-06-20T13:58:04.061Z,69.20
2018-06-20T14:00:32.602Z,69.30
2018-06-20T14:05:29.276Z,69.00
2018-06-20T14:07:57.749Z,68.50
2018-06-20T14:10:26.303Z,64.70
2018-06-20T14:12:54.740Z,67.80
2018-06-20T14:15:23.205Z,61.60
2018-06-20T14:17:51.758Z,63.00
2018-06-20T14:20:25.645Z,63.30
2018-06-20T14:22:54.062Z,62.70
2018-06-20T14:25:22.511Z,64.00
2018-06-20T14:27:50.993Z,65.90
2018-06-20T14:30:24.617Z,63.70
2018-06-20T14:32:58.572Z,60.70
2018-06-20T14:35:32.279Z,61.20
2018-06-20T14:38:06.067Z,59.70
2018-06-20T14:40:40.076Z,59.60
2018-06-20T14:43:14.192Z,58.90
2018-06-20T14:45:48.597Z,59.80
2018-06-20T14:48:17.023Z,59.00
2018-06-20T14:50:45.506Z,59.00
2018-06-20T14:53:13.982Z,58.30
2018-06-20T14:55:42.493Z,58.30
2018-06-20T14:58:10.938Z,58.90
2018-06-20T15:00:39.368Z,59.10
2018-06-20T15:03:07.812Z,58.40
2018-06-20T15:05:36.237Z,58.30
2018-06-20T15:08:04.718Z,56.50
2018-06-20T15:10:33.293Z,55.10
2018-06-20T15:13:01.761Z,57.00
2018-06-20T15:15:30.243Z,55.40
2018-06-20T15:20:26.851Z,56.90
2018-06-20T15:22:55.332Z,57.50
2018-06-20T15:25:39.272Z,56.90
2018-06-20T15:28:13.023Z,56.40
2018-06-20T15:30:46.800Z,55.70
2018-06-20T15:33:20.715Z,55.30
2018-06-20T15:35:54.309Z,54.20
2018-06-20T15:38:24.448Z,53.50
2018-06-20T15:40:52.919Z,54.00
2018-06-20T15:43:21.372Z,52.90
2018-06-20T15:45:49.861Z,53.40
2018-06-20T15:48:18.365Z,54.40
2018-06-20T15:50:46.830Z,52.50
2018-06-20T15:53:15.539Z,53.00
2018-06-20T15:55:44.034Z,52.10
2018-06-20T15:58:12.548Z,52.90
2018-06-20T16:00:40.993Z,52.10
2018-06-20T16:03:09.497Z,52.60
2018-06-20T16:05:38.117Z,53.30
2018-06-20T16:08:06.584Z,54.20
2018-06-20T16:10:35.104Z,53.50
2018-06-20T16:13:03.601Z,55.40
2018-06-20T16:15:32.130Z,52.50
2018-06-20T16:18:00.698Z,52.30
2018-06-20T16:20:34.403Z,52.70
2018-06-20T16:23:08.303Z,53.90
2018-06-20T16:25:42.209Z,50.90
2018-06-20T16:28:15.873Z,52.60
2018-06-20T16:30:44.969Z,52.70
2018-06-20T16:33:13.404Z,53.90
2018-06-20T16:35:41.887Z,53.90
2018-06-20T16:38:10.574Z,54.10
2018-06-20T16:40:39.024Z,54.50
2018-06-20T16:43:07.697Z,53.00
2018-06-20T16:45:36.194Z,53.50
2018-06-20T16:48:04.716Z,53.20
2018-06-20T16:50:33.195Z,53.80
2018-06-20T16:53:01.676Z,54.00
2018-06-20T16:55:30.176Z,52.60
2018-06-20T16:57:58.598Z,50.90
2018-06-20T17:00:27.054Z,51.70
2018-06-20T17:02:55.934Z,52.70
2018-06-20T17:05:24.655Z,54.10
2018-06-20T17:07:53.072Z,53.40
2018-06-20T17:10:22.386Z,52.20
2018-06-20T17:12:57.025Z,51.70
2018-06-20T17:15:30.975Z,52.40
2018-06-20T17:18:05.157Z,52.60
2018-06-20T17:20:38.862Z,52.70
2018-06-20T17:23:13.093Z,53.80
2018-06-20T17:25:41.845Z,52.70
2018-06-20T17:28:11.467Z,53.10
2018-06-20T17:30:40.064Z,52.80
2018-06-20T17:33:08.825Z,51.00
2018-06-20T17:35:37.695Z,51.80
2018-06-20T17:38:06.849Z,51.30
2018-06-20T17:40:35.823Z,51.20
2018-06-20T17:43:04.578Z,51.30
2018-06-20T17:45:33.225Z,51.40
2018-06-20T17:50:29.819Z,51.00
2018-06-20T17:52:58.544Z,51.00
2018-06-20T17:55:27.483Z,51.10
2018-06-20T17:57:56.918Z,52.10
2018-06-20T18:00:27.055Z,53.00
2018-06-20T18:02:55.770Z,51.60
2018-06-20T18:05:29.662Z,51.70
2018-06-20T18:08:03.652Z,51.90
2018-06-20T18:10:37.615Z,52.30
2018-06-20T18:13:06.327Z,53.00
2018-06-20T18:15:40.381Z,54.00
2018-06-20T18:18:09.187Z,53.60
2018-06-20T18:20:37.853Z,55.90
2018-06-20T18:23:06.527Z,55.50
2018-06-20T18:25:34.994Z,54.40
2018-06-20T18:28:03.517Z,54.10
2018-06-20T18:33:00.419Z,54.90
2018-06-20T18:35:29.415Z,56.60
2018-06-20T18:37:58.148Z,57.60
2018-06-20T18:42:55.188Z,59.20
2018-06-20T18:45:24.003Z,60.10
2018-06-20T18:47:58.372Z,61.30
2018-06-20T18:52:55.229Z,65.80
2018-06-20T18:55:23.828Z,65.50
2018-06-20T18:57:58.228Z,67.10
2018-06-20T19:00:32.285Z,68.80
2018-06-20T19:03:06.164Z,69.80
2018-06-20T19:05:40.045Z,71.60
2018-06-20T19:08:14.071Z,72.90
2018-06-20T19:10:42.784Z,74.60
2018-06-20T19:13:11.401Z,75.50
2018-06-20T19:15:40.190Z,76.30
2018-06-20T19:18:08.914Z,77.50
2018-06-20T19:20:37.584Z,77.60
2018-06-20T19:23:06.519Z,78.40
2018-06-20T19:25:35.146Z,78.30
2018-06-20T19:28:03.941Z,80.50
2018-06-20T19:30:32.976Z,81.60
2018-06-20T19:33:01.798Z,81.00
2018-06-20T19:35:30.709Z,81.10
2018-06-20T19:37:59.379Z,81.10
2018-06-20T19:40:28.141Z,81.70
2018-06-20T19:42:57.107Z,82.50
2018-06-20T19:45:26.000Z,83.80
2018-06-20T19:47:54.880Z,85.40
2018-06-20T19:50:23.557Z,85.40
2018-06-20T19:52:52.328Z,86.10
2018-06-20T19:55:20.997Z,87.30
2018-06-20T19:57:49.606Z,89.30
2018-06-20T20:00:18.782Z,90.20
2018-06-20T20:02:47.600Z,90.60
2018-06-20T20:05:16.479Z,90.80
2018-06-20T20:07:44.945Z,91.10
2018-06-20T20:10:13.821Z,91.40
2018-06-20T20:12:42.598Z,91.60
2018-06-20T20:15:11.091Z,92.00
2018-06-20T20:17:40.054Z,92.30
2018-06-20T20:20:09.084Z,92.70
2018-06-20T20:22:37.851Z,93.10
2018-06-20T20:25:07.473Z,93.10
2018-06-20T20:27:36.691Z,93.40
2018-06-20T20:30:06.329Z,93.80
2018-06-20T20:32:35.866Z,94.10
2018-06-20T20:35:04.778Z,94.70
2018-06-20T20:37:33.326Z,95.50
2018-06-20T20:40:01.866Z,95.80
2018-06-20T20:42:30.407Z,96.10
2018-06-20T20:44:59.053Z,96.90
2018-06-20T20:47:28.351Z,97.70
2018-06-20T20:49:57.724Z,98.20
2018-06-20T20:52:26.808Z,98.60
2018-06-20T20:54:56.162Z,98.40
2018-06-20T20:57:25.386Z,99.00
2018-06-20T21:02:22.167Z,99.80
2018-06-20T21:04:50.727Z,99.90
2018-06-20T21:07:19.413Z,99.90
2018-06-20T21:09:48.582Z,99.90
2018-06-20T21:12:17.841Z,99.90
2018-06-20T21:14:47.234Z,99.90
2018-06-20T21:17:15.670Z,99.90
2018-06-20T21:19:44.071Z,99.90
2018-06-20T21:22:12.602Z,99.90
2018-06-20T21:24:41.059Z,99.90
2018-06-20T21:27:09.503Z,99.90
2018-06-20T21:29:38.112Z,99.90
2018-06-20T21:32:06.509Z,99.90
2018-06-20T21:34:35.245Z,99.90
2018-06-20T21:37:03.854Z,99.90
2018-06-20T21:39:32.341Z,99.90
2018-06-20T21:42:00.814Z,99.90
2018-06-20T21:44:29.312Z,99.90
2018-06-20T21:46:57.766Z,99.90
2018-06-20T21:49:26.351Z,99.90
2018-06-20T21:51:54.933Z,99.90
2018-06-20T21:54:23.650Z,99.90
2018-06-20T21:56:52.160Z,99.90
2018-06-20T21:59:20.992Z,99.90
2018-06-20T22:01:49.497Z,99.90
2018-06-20T22:04:17.952Z,99.90
2018-06-20T22:06:46.405Z,99.90
2018-06-20T22:09:14.887Z,99.90
2018-06-20T22:11:43.365Z,99.90
2018-06-20T22:14:11.893Z,99.90
2018-06-20T22:16:40.631Z,99.90
2018-06-20T22:19:09.167Z,99.90
2018-06-20T22:21:37.735Z,99.90
2018-06-20T22:24:06.525Z,99.90
2018-06-20T22:26:35.152Z,99.90
2018-06-20T22:29:03.758Z,99.90
2018-06-20T22:31:33.317Z,99.90
2018-06-20T22:34:01.881Z,99.90
2018-06-20T22:36:30.356Z,99.90
2018-06-20T22:38:58.925Z,99.90
2018-06-20T22:41:27.418Z,99.90
2018-06-20T22:43:55.935Z,99.90
2018-06-20T22:46:24.351Z,99.90
2018-06-20T22:48:52.805Z,99.90
2018-06-20T22:51:21.180Z,99.90
2018-06-20T22:53:49.629Z,99.90
2018-06-20T22:56:18.034Z,99.90
2018-06-20T22:58:46.437Z,99.90
2018-06-20T23:01:14.836Z,99.90
2018-06-20T23:03:43.280Z,99.90
2018-06-20T23:06:11.712Z,99.90
2018-06-20T23:08:40.229Z,99.90
2018-06-20T23:11:08.641Z,99.90
2018-06-20T23:13:37.045Z,99.90
2018-06-20T23:16:05.513Z,99.90
2018-06-20T23:18:33.954Z,99.90
2018-06-20T23:21:02.368Z,99.90
2018-06-20T23:25:58.924Z,99.90
2018-06-20T23:28:27.308Z,99.90
2018-06-20T23:30:55.752Z,99.90
2018-06-20T23:33:24.205Z,99.90
2018-06-20T23:35:52.681Z,99.90
2018-06-20T23:38:21.184Z,99.90
2018-06-20T23:40:49.763Z,99.90
2018-06-20T23:43:18.169Z,99.90
2018-06-20T23:45:46.758Z,99.90
2018-06-20T23:48:15.310Z,99.90
2018-06-20T23:50:43.774Z,99.90
2018-06-20T23:53:12.195Z,99.90
2018-06-20T23:55:40.662Z,99.90
2018-06-20T23:58:09.129Z,99.90
